Time;durP1;ratioP1;P1;durP2;ratioP2;P2;SDS_P1;SDS_P2;PMS_P1;PMS_P2;Temp;Humidity;BMP_temperature;BMP_pressure;BME280_temperature;BME280_humidity;BME280_pressure;Samples;Min_cycle;Max_cycle;Signal;HPM_P1;HPM_P2
2023/07/09 00:00:58;;;;;;;6.22;4.82;;;23.80;41.20;;;;;;6136496;22;115469;-79
2023/07/09 00:03:25;;;;;;;6.85;4.97;;;23.70;41.00;;;;;;6112916;23;114699;-78
2023/07/09 00:05:52;;;;;;;8.40;4.90;;;23.70;41.70;;;;;;6112377;23;114341;-79
2023/07/09 00:08:29;;;;;;;5.68;4.63;;;23.70;41.90;;;;;;6114479;23;114143;-78
2023/07/09 00:10:56;;;;;;;6.50;4.88;;;23.70;40.60;;;;;;6112959;22;114885;-78
2023/07/09 00:13:24;;;;;;;6.65;4.95;;;23.70;40.80;;;;;;6136386;22;115195;-78
2023/07/09 00:15:51;;;;;;;9.43;5.60;;;23.60;40.30;;;;;;6111835;23;114376;-79
2023/07/09 00:18:18;;;;;;;6.13;5.07;;;23.60;40.60;;;;;;6112529;23;114086;-79
2023/07/09 00:20:48;;;;;;;6.28;4.75;;;23.60;41.80;;;;;;6112622;23;115483;-79
2023/07/09 00:23:19;;;;;;;7.47;4.93;;;23.60;41.80;;;;;;6112641;23;114548;-79
2023/07/09 00:25:47;;;;;;;7.45;4.88;;;23.60;41.80;;;;;;6114126;23;114077;-79
2023/07/09 00:28:15;;;;;;;7.70;5.88;;;23.60;41.50;;;;;;6112146;23;114520;-79
2023/07/09 00:30:43;;;;;;;7.60;5.38;;;23.60;40.60;;;;;;6111485;22;114753;-79
2023/07/09 00:33:11;;;;;;;12.90;7.20;;;23.50;41.80;;;;;;6136291;22;116084;-78
2023/07/09 00:35:46;;;;;;;10.48;6.80;;;23.60;40.60;;;;;;6111640;23;113991;-79
2023/07/09 00:38:23;;;;;;;7.13;4.93;;;23.60;40.80;;;;;;6137224;22;114163;-79
2023/07/09 00:41:05;;;;;;;8.57;6.03;;;23.60;41.60;;;;;;6112405;23;115019;-79
2023/07/09 00:43:36;;;;;;;6.82;5.18;;;23.50;41.30;;;;;;6112614;23;117033;-79
2023/07/09 00:46:27;;;;;;;9.10;6.20;;;23.50;42.10;;;;;;6113683;23;114046;-79
2023/07/09 00:49:17;;;;;;;12.48;7.03;;;23.50;41.20;;;;;;6137589;22;114239;-78
2023/07/09 00:51:47;;;;;;;10.30;6.38;;;23.60;41.00;;;;;;6111088;23;114848;-78
2023/07/09 00:54:30;;;;;;;7.15;5.53;;;23.50;41.10;;;;;;6111166;23;114542;-79
2023/07/09 00:56:59;;;;;;;7.97;5.90;;;23.60;41.90;;;;;;6088496;23;114472;-79
2023/07/09 00:59:30;;;;;;;8.50;5.90;;;23.60;41.70;;;;;;6112899;23;114583;-79
2023/07/09 01:01:59;;;;;;;7.82;5.57;;;23.60;41.80;;;;;;6086919;23;115155;-79
2023/07/09 01:04:27;;;;;;;10.48;6.05;;;23.50;41.80;;;;;;6110348;23;114744;-78
2023/07/09 01:06:55;;;;;;;8.07;5.93;;;23.60;41.90;;;;;;6136511;22;114498;-79
2023/07/09 01:09:23;;;;;;;6.72;5.43;;;23.60;41.40;;;;;;6112612;22;114135;-78
2023/07/09 01:11:50;;;;;;;7.00;5.45;;;23.50;42.00;;;;;;6135478;22;118869;-78
2023/07/09 01:14:21;;;;;;;8.15;5.45;;;23.50;41.70;;;;;;6111094;23;115135;-77
2023/07/09 01:17:01;;;;;;;10.00;5.80;;;23.60;41.80;;;;;;6113335;22;114252;-78
2023/07/09 01:19:30;;;;;;;7.57;5.60;;;23.60;41.20;;;;;;6087682;23;114163;-77
2023/07/09 01:21:58;;;;;;;6.80;5.00;;;23.60;41.90;;;;;;6112524;22;114756;-77
2023/07/09 01:24:50;;;;;;;9.48;5.40;;;23.50;42.00;;;;;;6112845;23;114572;-77
2023/07/09 01:27:20;;;;;;;9.57;5.78;;;23.60;41.60;;;;;;6111910;23;114308;-78
2023/07/09 01:29:49;;;;;;;7.35;5.40;;;23.50;42.20;;;;;;6112501;22;114148;-77
2023/07/09 01:32:20;;;;;;;8.38;6.18;;;23.50;42.20;;;;;;6085568;23;114878;-77
2023/07/09 01:34:49;;;;;;;7.82;5.25;;;23.50;41.90;;;;;;6112781;23;114567;-78
2023/07/09 01:37:23;;;;;;;7.68;5.85;;;23.50;41.90;;;;;;6112093;23;114201;-78
2023/07/09 01:39:50;;;;;;;;;;;23.60;41.80;;;;;;6112690;23;114064;-78
2023/07/09 01:42:18;;;;;;;8.73;5.72;;;23.40;41.50;;;;;;6112658;23;114855;-78
2023/07/09 01:44:45;;;;;;;8.77;5.70;;;23.40;42.00;;;;;;6111270;23;115913;-78
2023/07/09 01:47:12;;;;;;;9.30;6.43;;;23.40;42.20;;;;;;6114132;22;114065;-78
2023/07/09 01:49:40;;;;;;;8.43;5.78;;;23.50;42.00;;;;;;6113961;23;114130;-78
2023/07/09 01:52:08;;;;;;;7.15;5.38;;;23.40;41.90;;;;;;6110687;23;114718;-78
2023/07/09 01:54:38;;;;;;;9.75;6.40;;;23.40;42.00;;;;;;6135659;22;115065;-78
2023/07/09 01:57:24;;;;;;;10.27;6.47;;;23.40;41.60;;;;;;6112796;23;114318;-78
2023/07/09 01:59:54;;;;;;;12.30;7.70;;;23.40;41.80;;;;;;6136424;22;114252;-78
2023/07/09 02:02:22;;;;;;;8.13;5.93;;;23.30;41.20;;;;;;6112401;23;114922;-78
2023/07/09 02:04:54;;;;;;;8.07;6.25;;;23.30;42.00;;;;;;6112181;22;114485;-78
2023/07/09 02:07:23;;;;;;;7.25;4.78;;;23.30;41.60;;;;;;6111903;23;114438;-78
2023/07/09 02:09:50;;;;;;;6.78;5.57;;;23.30;42.10;;;;;;6111711;23;114436;-78
2023/07/09 02:12:17;;;;;;;8.07;5.63;;;23.30;42.10;;;;;;6135537;22;114882;-79
2023/07/09 02:14:45;;;;;;;7.07;5.75;;;23.30;42.40;;;;;;6086552;23;116007;-79
2023/07/09 02:17:13;;;;;;;7.13;5.15;;;23.30;42.20;;;;;;6137874;22;114397;-79
2023/07/09 02:19:40;;;;;;;7.05;5.70;;;23.30;42.00;;;;;;6113006;23;114096;-79
2023/07/09 02:22:08;;;;;;;7.43;5.97;;;23.30;42.30;;;;;;6111201;23;116405;-79
2023/07/09 02:24:35;;;;;;;6.90;5.28;;;23.30;42.00;;;;;;6111970;23;114822;-77
2023/07/09 02:27:03;;;;;;;10.32;6.28;;;23.40;42.10;;;;;;6088338;23;114196;-77
2023/07/09 02:29:32;;;;;;;7.25;5.57;;;23.40;41.90;;;;;;6113413;22;114278;-78
2023/07/09 02:32:00;;;;;;;8.60;5.72;;;23.30;41.90;;;;;;6110733;23;115444;-78
2023/07/09 02:34:30;;;;;;;6.97;5.30;;;23.30;42.20;;;;;;6087232;23;114611;-78
2023/07/09 02:36:58;;;;;;;8.35;5.28;;;23.30;42.20;;;;;;6113048;23;114017;-78
2023/07/09 02:39:25;;;;;;;7.88;6.20;;;23.30;42.00;;;;;;6114709;23;114160;-78
2023/07/09 02:41:52;;;;;;;7.90;5.57;;;23.30;41.50;;;;;;6113164;23;115009;-78
2023/07/09 02:44:20;;;;;;;7.97;5.95;;;23.30;42.00;;;;;;6087294;23;114463;-78
2023/07/09 02:46:47;;;;;;;9.07;5.75;;;23.30;41.70;;;;;;6087465;23;114170;-78
2023/07/09 02:49:15;;;;;;;7.32;5.53;;;23.30;41.60;;;;;;6112896;22;114110;-79
2023/07/09 02:51:43;;;;;;;7.82;5.38;;;23.20;42.20;;;;;;6087042;23;114977;-78
2023/07/09 02:54:10;;;;;;;7.80;5.55;;;23.20;42.40;;;;;;6112990;23;114621;-78
2023/07/09 02:56:37;;;;;;;9.20;5.97;;;23.20;42.30;;;;;;6137602;22;114737;-79
2023/07/09 02:59:04;;;;;;;7.95;5.60;;;23.20;42.20;;;;;;6112783;23;114078;-79
2023/07/09 03:01:34;;;;;;;9.55;6.40;;;23.20;41.90;;;;;;6111497;23;114976;-78
2023/07/09 03:04:02;;;;;;;8.07;5.65;;;23.20;42.10;;;;;;6136900;22;114549;-78
2023/07/09 03:06:34;;;;;;;8.82;5.78;;;23.30;42.00;;;;;;6112606;23;114409;-78
2023/07/09 03:09:02;;;;;;;7.88;5.85;;;23.30;42.20;;;;;;6112831;23;114216;-78
2023/07/09 03:11:30;;;;;;;8.30;5.93;;;23.30;42.30;;;;;;6112331;23;115413;-78
2023/07/09 03:13:58;;;;;;;7.95;5.97;;;23.30;42.20;;;;;;6111683;22;114623;-78
2023/07/09 03:16:27;;;;;;;9.10;5.88;;;23.30;42.00;;;;;;6112543;23;114834;-78
2023/07/09 03:18:55;;;;;;;8.13;5.47;;;23.30;41.90;;;;;;6112702;23;114333;-78
2023/07/09 03:21:23;;;;;;;8.48;5.78;;;23.40;41.90;;;;;;6111567;23;114844;-78
2023/07/09 03:23:50;;;;;;;7.30;5.82;;;23.50;41.80;;;;;;6112913;23;114614;-78
2023/07/09 03:26:17;;;;;;;8.25;5.70;;;23.80;41.60;;;;;;6137100;22;114499;-78
2023/07/09 03:28:44;;;;;;;7.28;5.40;;;24.10;41.00;;;;;;6112612;23;114280;-77
2023/07/09 03:31:11;;;;;;;8.13;5.47;;;24.50;40.50;;;;;;6111497;22;116352;-78
2023/07/09 03:33:39;;;;;;;9.65;5.80;;;24.80;40.00;;;;;;6136124;22;114489;-77
2023/07/09 03:36:06;;;;;;;7.68;5.18;;;25.20;39.40;;;;;;6113348;23;114110;-77
2023/07/09 03:38:35;;;;;;;7.97;5.70;;;25.60;38.70;;;;;;6088425;23;114480;-77
2023/07/09 03:41:02;;;;;;;7.60;5.35;;;25.80;38.20;;;;;;6112971;23;114890;-78
2023/07/09 03:43:29;;;;;;;7.20;5.35;;;26.10;38.00;;;;;;6112723;23;114569;-78
2023/07/09 03:45:57;;;;;;;7.70;5.63;;;26.30;37.40;;;;;;6112551;23;114289;-78
2023/07/09 03:48:25;;;;;;;8.57;5.97;;;26.40;37.20;;;;;;6114235;23;114009;-78
2023/07/09 03:50:52;;;;;;;9.43;5.10;;;26.60;36.60;;;;;;6112638;23;114927;-78
2023/07/09 03:53:19;;;;;;;8.30;6.13;;;26.70;36.70;;;;;;6136641;22;114585;-78
2023/07/09 03:55:50;;;;;;;7.28;5.38;;;26.80;36.20;;;;;;6113819;23;114264;-79
2023/07/09 03:58:17;;;;;;;7.30;5.65;;;26.90;36.30;;;;;;6087916;23;114314;-78
2023/07/09 04:00:44;;;;;;;8.80;5.55;;;27.00;35.70;;;;;;6110864;23;114952;-78
2023/07/09 04:03:12;;;;;;;7.07;5.07;;;27.10;35.90;;;;;;6111227;23;115199;-79
2023/07/09 04:05:39;;;;;;;7.35;5.65;;;27.00;35.80;;;;;;6112755;22;114318;-79
2023/07/09 04:08:06;;;;;;;7.50;6.13;;;27.10;35.40;;;;;;6112181;23;114307;-79
2023/07/09 04:10:33;;;;;;;8.45;5.65;;;27.10;35.20;;;;;;6136295;22;114859;-79
2023/07/09 04:13:00;;;;;;;7.57;5.57;;;27.00;35.50;;;;;;6086566;23;117519;-79
2023/07/09 04:15:29;;;;;;;8.75;5.30;;;27.10;35.50;;;;;;6113603;22;114349;-79
2023/07/09 04:17:56;;;;;;;8.38;6.22;;;27.00;35.70;;;;;;6114382;23;114113;-77
2023/07/09 04:20:25;;;;;;;7.28;5.40;;;27.00;35.00;;;;;;6112522;23;116931;-78
2023/07/09 04:22:52;;;;;;;8.05;5.82;;;26.90;35.20;;;;;;6112656;23;114586;-79
2023/07/09 04:25:20;;;;;;;7.97;6.10;;;26.90;35.70;;;;;;6113241;23;114170;-78
2023/07/09 04:27:47;;;;;;;8.13;5.78;;;26.90;35.30;;;;;;6113607;23;114173;-77
2023/07/09 04:30:14;;;;;;;7.68;5.45;;;26.80;35.20;;;;;;6111018;23;115533;-78
2023/07/09 04:32:45;;;;;;;9.07;5.40;;;26.70;35.30;;;;;;6112403;23;114760;-78
2023/07/09 04:35:13;;;;;;;9.07;5.35;;;26.60;35.60;;;;;;6113528;23;114153;-78
2023/07/09 04:37:40;;;;;;;8.68;5.40;;;26.50;35.70;;;;;;6113550;22;114054;-79
2023/07/09 04:40:10;;;;;;;9.45;5.80;;;26.40;35.50;;;;;;6111398;23;115439;-77
2023/07/09 04:42:38;;;;;;;7.05;5.07;;;26.30;35.80;;;;;;6112089;22;114843;-77
2023/07/09 04:45:06;;;;;;;8.00;5.50;;;26.40;35.90;;;;;;6137176;22;114521;-77
2023/07/09 04:47:33;;;;;;;7.43;5.25;;;26.30;35.80;;;;;;6112110;23;114369;-78
2023/07/09 04:50:03;;;;;;;7.43;5.63;;;26.30;36.00;;;;;;6110661;23;114955;-78
2023/07/09 04:52:31;;;;;;;7.00;4.82;;;26.20;36.00;;;;;;6112041;22;114555;-78
2023/07/09 04:55:01;;;;;;;7.32;4.85;;;26.20;36.10;;;;;;6112027;23;114274;-78
2023/07/09 04:57:29;;;;;;;5.65;4.70;;;26.20;35.90;;;;;;6112510;23;114254;-78
2023/07/09 04:59:57;;;;;;;7.35;5.60;;;26.20;36.20;;;;;;6110119;23;115488;-78
2023/07/09 05:02:24;;;;;;;7.40;5.07;;;26.10;36.20;;;;;;6086551;23;114883;-78
2023/07/09 05:04:51;;;;;;;6.40;4.80;;;26.10;36.40;;;;;;6087921;23;114005;-79
2023/07/09 05:07:19;;;;;;;6.47;5.07;;;26.20;36.10;;;;;;6113160;23;113999;-78
2023/07/09 05:09:47;;;;;;;5.88;4.70;;;26.10;36.30;;;;;;6113397;23;115040;-78
2023/07/09 05:12:14;;;;;;;5.70;4.38;;;26.20;36.10;;;;;;6112997;23;114577;-78
2023/07/09 05:14:41;;;;;;;7.18;4.35;;;26.20;35.80;;;;;;6087404;23;114366;-78
2023/07/09 05:17:08;;;;;;;6.45;4.75;;;26.10;36.00;;;;;;6112569;23;114174;-78
2023/07/09 05:19:35;;;;;;;6.30;4.65;;;26.00;36.40;;;;;;6112652;23;114923;-78
2023/07/09 05:22:03;;;;;;;8.13;4.90;;;26.10;36.10;;;;;;6112829;23;114602;-79
2023/07/09 05:24:30;;;;;;;7.82;4.65;;;26.20;36.20;;;;;;6113595;23;114068;-80
2023/07/09 05:26:57;;;;;;;6.15;4.53;;;26.20;35.90;;;;;;6136743;22;114285;-79
2023/07/09 05:29:25;;;;;;;5.63;4.50;;;26.30;35.90;;;;;;6112774;23;115433;-78
2023/07/09 05:31:52;;;;;;;6.15;4.70;;;26.30;36.00;;;;;;6111592;23;116700;-78
2023/07/09 05:34:21;;;;;;;7.97;4.80;;;26.30;35.80;;;;;;6113019;23;114201;-79
2023/07/09 05:36:48;;;;;;;6.18;4.80;;;26.30;35.80;;;;;;6113585;23;114412;-78
2023/07/09 05:39:16;;;;;;;6.57;4.75;;;26.40;35.90;;;;;;6135614;22;114893;-78
2023/07/09 05:41:43;;;;;;;5.53;4.50;;;26.50;35.80;;;;;;6086855;23;114562;-77
2023/07/09 05:44:10;;;;;;;6.80;4.50;;;26.60;35.60;;;;;;6113504;23;114468;-78
2023/07/09 05:46:37;;;;;;;5.97;4.80;;;26.80;35.50;;;;;;6113718;23;115048;-79
2023/07/09 05:49:08;;;;;;;6.10;4.93;;;26.80;35.30;;;;;;6112089;23;114752;-79
2023/07/09 05:51:35;;;;;;;6.10;4.47;;;27.00;35.20;;;;;;6111758;23;114587;-79
2023/07/09 05:54:03;;;;;;;5.90;4.75;;;27.10;35.20;;;;;;6113575;23;114352;-79
2023/07/09 05:56:31;;;;;;;8.90;4.82;;;27.10;35.10;;;;;;6137340;22;114122;-79
2023/07/09 05:58:59;;;;;;;7.90;5.10;;;27.20;34.90;;;;;;6112280;23;114912;-78
2023/07/09 06:01:27;;;;;;;6.55;4.68;;;27.30;35.00;;;;;;6110647;23;114692;-79
2023/07/09 06:03:56;;;;;;;7.20;4.75;;;27.40;34.80;;;;;;6136599;22;114205;-79
2023/07/09 06:06:24;;;;;;;6.95;4.45;;;27.60;34.90;;;;;;6113086;23;114207;-79
2023/07/09 06:08:51;;;;;;;7.28;4.78;;;27.60;34.60;;;;;;6112147;23;115000;-79
2023/07/09 06:11:18;;;;;;;6.15;4.85;;;27.70;34.70;;;;;;6086587;23;114582;-77
2023/07/09 06:13:47;;;;;;;5.78;4.03;;;27.80;34.50;;;;;;6111835;23;114283;-77
2023/07/09 06:16:14;;;;;;;6.53;4.30;;;28.00;34.40;;;;;;6112120;23;114212;-78
2023/07/09 06:18:41;;;;;;;5.78;4.25;;;28.10;34.10;;;;;;6111402;22;115331;-78
2023/07/09 06:21:11;;;;;;;7.10;4.43;;;28.20;34.20;;;;;;6136297;22;114640;-79
2023/07/09 06:23:38;;;;;;;6.95;4.38;;;28.30;34.20;;;;;;6113690;23;114038;-78
2023/07/09 06:26:05;;;;;;;7.00;4.43;;;28.40;33.70;;;;;;6113338;23;114109;-77
2023/07/09 06:28:33;;;;;;;6.93;4.55;;;28.60;33.70;;;;;;6112575;22;116144;-79
2023/07/09 06:31:00;;;;;;;7.43;4.65;;;28.70;33.80;;;;;;6111855;23;114714;-77
2023/07/09 06:33:28;;;;;;;6.18;4.55;;;28.90;33.70;;;;;;6110976;23;114556;-77
2023/07/09 06:36:00;;;;;;;8.57;5.47;;;29.00;33.90;;;;;;6112447;23;114486;-78
2023/07/09 06:38:27;;;;;;;9.93;5.03;;;29.10;34.00;;;;;;6110163;23;116268;-78
2023/07/09 06:40:55;;;;;;;6.20;4.72;;;29.20;33.50;;;;;;6110059;23;114983;-78
2023/07/09 06:43:23;;;;;;;9.20;4.88;;;29.30;33.70;;;;;;6112550;23;114312;-78
2023/07/09 06:45:55;;;;;;;8.80;4.75;;;29.40;33.20;;;;;;6113100;22;114068;-78
2023/07/09 06:48:23;;;;;;;12.18;5.47;;;29.40;32.80;;;;;;6111434;23;114911;-79
2023/07/09 06:50:52;;;;;;;9.50;5.07;;;29.50;32.90;;;;;;6109947;23;114722;-80
2023/07/09 06:53:20;;;;;;;8.93;4.53;;;29.50;32.70;;;;;;6086450;23;114335;-79
2023/07/09 06:55:52;;;;;;;7.95;4.88;;;29.50;32.50;;;;;;6112700;23;114304;-79
2023/07/09 06:58:20;;;;;;;9.45;5.28;;;29.60;33.10;;;;;;6086733;23;118239;-79
2023/07/09 07:00:48;;;;;;;9.57;4.82;;;29.60;32.50;;;;;;6136026;22;115861;-79
2023/07/09 07:03:16;;;;;;;9.27;5.30;;;29.70;32.20;;;;;;6113464;22;114247;-79
2023/07/09 07:05:44;;;;;;;9.02;5.50;;;29.70;32.10;;;;;;6088846;23;114259;-78
2023/07/09 07:08:14;;;;;;;9.10;5.43;;;29.80;32.20;;;;;;6113297;22;115640;-79
2023/07/09 07:10:41;;;;;;;8.30;5.47;;;29.80;32.30;;;;;;6112186;23;115890;-78
2023/07/09 07:13:10;;;;;;;8.68;4.88;;;29.90;32.10;;;;;;6112823;23;114254;-78
2023/07/09 07:15:37;;;;;;;7.82;4.25;;;29.90;32.10;;;;;;6114349;22;114180;-78
2023/07/09 07:18:05;;;;;;;7.55;3.97;;;29.90;31.30;;;;;;6112294;23;115193;-79
2023/07/09 07:20:33;;;;;;;6.20;3.92;;;29.90;31.70;;;;;;6111578;23;114587;-78
2023/07/09 07:23:00;;;;;;;7.22;4.20;;;30.00;31.80;;;;;;6114351;23;114196;-79
2023/07/09 07:25:30;;;;;;;8.95;4.88;;;30.00;30.90;;;;;;6114085;23;114458;-79
2023/07/09 07:27:58;;;;;;;6.18;4.25;;;30.00;30.90;;;;;;6111037;23;114821;-79
2023/07/09 07:30:28;;;;;;;6.95;4.28;;;30.00;31.20;;;;;;6112757;23;114772;-79
2023/07/09 07:32:55;;;;;;;5.93;4.30;;;30.00;31.90;;;;;;6137361;22;114421;-78
2023/07/09 07:35:23;;;;;;;6.38;4.25;;;29.90;31.80;;;;;;6114356;23;114133;-78
2023/07/09 07:37:50;;;;;;;6.53;4.82;;;29.90;32.80;;;;;;6111486;22;114920;-78
2023/07/09 07:40:17;;;;;;;5.90;3.92;;;29.90;32.60;;;;;;6112671;22;115855;-78
2023/07/09 07:42:45;;;;;;;8.10;3.75;;;30.00;31.70;;;;;;6113373;23;114430;-78
2023/07/09 07:45:13;;;;;;;4.80;3.38;;;30.10;30.70;;;;;;6114040;22;114019;-78
2023/07/09 07:47:40;;;;;;;4.45;3.50;;;30.20;30.70;;;;;;6112736;23;114922;-77
2023/07/09 07:50:08;;;;;;;6.63;3.10;;;30.20;30.20;;;;;;6136144;22;114461;-77
2023/07/09 07:52:37;;;;;;;5.28;3.67;;;30.30;29.70;;;;;;6113930;22;114392;-80
2023/07/09 07:55:08;;;;;;;6.43;3.45;;;30.30;28.70;;;;;;6113734;23;115785;-77
2023/07/09 07:57:39;;;;;;;7.65;5.15;;;30.40;29.30;;;;;;6111231;23;114842;-77
2023/07/09 08:00:06;;;;;;;4.63;3.20;;;30.30;28.70;;;;;;6113263;23;115899;-79
2023/07/09 08:02:40;;;;;;;4.85;3.10;;;30.30;28.80;;;;;;6112271;23;114068;-79
2023/07/09 08:05:08;;;;;;;4.75;3.30;;;30.40;28.40;;;;;;6113810;23;114299;-78
2023/07/09 08:07:36;;;;;;;6.07;3.17;;;30.40;29.50;;;;;;6110537;23;114886;-78
2023/07/09 08:10:03;;;;;;;4.72;3.03;;;30.50;29.80;;;;;;6112715;23;115069;-78
2023/07/09 08:12:30;;;;;;;4.35;3.15;;;30.50;28.70;;;;;;6113672;23;114098;-78
2023/07/09 08:14:57;;;;;;;4.97;3.20;;;30.60;28.70;;;;;;6113829;23;114307;-78
2023/07/09 08:17:25;;;;;;;4.88;3.30;;;30.60;29.10;;;;;;6112571;23;114921;-78
2023/07/09 08:19:53;;;;;;;4.07;3.03;;;30.60;28.50;;;;;;6112663;23;114757;-78
2023/07/09 08:22:21;;;;;;;6.07;3.50;;;30.60;28.80;;;;;;6112535;22;114265;-78
2023/07/09 08:24:49;;;;;;;5.18;3.15;;;30.60;28.20;;;;;;6114418;22;114363;-78
2023/07/09 08:27:16;;;;;;;5.95;3.10;;;30.60;28.30;;;;;;6111020;23;115240;-78
2023/07/09 08:29:43;;;;;;;5.22;3.22;;;30.60;28.00;;;;;;6112533;23;114685;-79
2023/07/09 08:32:11;;;;;;;4.18;3.35;;;30.70;28.00;;;;;;6113066;23;114360;-78
2023/07/09 08:34:38;;;;;;;7.53;3.67;;;30.70;27.70;;;;;;6087657;23;114187;-79
2023/07/09 08:37:25;;;;;;;5.82;2.97;;;30.80;27.80;;;;;;6112329;23;115013;-79
2023/07/09 08:39:52;;;;;;;4.95;3.30;;;30.70;28.70;;;;;;6111221;23;114665;-79
2023/07/09 08:42:31;;;;;;;4.50;3.33;;;30.80;28.70;;;;;;6122205;23;114096;-77
2023/07/09 08:45:19;;;;;;;4.95;3.38;;;30.90;28.30;;;;;;6087780;23;114149;-77
2023/07/09 08:48:06;;;;;;;5.32;3.03;;;30.90;27.40;;;;;;6112361;23;116097;-78
2023/07/09 08:50:41;;;;;;;5.30;3.35;;;30.80;28.40;;;;;;6089412;23;114824;-79
2023/07/09 08:53:15;;;;;;;4.25;3.03;;;30.80;28.20;;;;;;6088233;23;114324;-79
2023/07/09 08:55:42;;;;;;;4.55;2.67;;;30.80;28.90;;;;;;6113562;23;114129;-78
2023/07/09 08:58:14;;;;;;;4.57;3.05;;;30.80;27.90;;;;;;6086000;23;114845;-79
2023/07/09 09:00:43;;;;;;;7.00;3.13;;;30.80;28.00;;;;;;6086658;23;114498;-77
2023/07/09 09:03:29;;;;;;;5.53;3.05;;;30.90;28.00;;;;;;6088061;23;114103;-78
2023/07/09 09:05:57;;;;;;;3.67;2.80;;;31.00;27.30;;;;;;6113266;23;114437;-79
2023/07/09 09:08:33;;;;;;;3.63;2.67;;;31.00;26.30;;;;;;6112500;23;114844;-78
2023/07/09 09:11:49;;;;;;;7.13;3.22;;;31.00;26.40;;;;;;6086543;23;114571;-78
2023/07/09 09:14:22;;;;;;;3.67;2.92;;;30.90;27.10;;;;;;6061381;23;114491;-78
2023/07/09 09:16:49;;;;;;;4.50;2.63;;;30.90;27.40;;;;;;6063436;23;114378;-78
2023/07/09 09:19:23;;;;;;;6.50;3.30;;;30.90;26.60;;;;;;6086511;23;115140;-78
2023/07/09 09:21:57;;;;;;;4.70;3.25;;;31.00;25.80;;;;;;6110957;23;114624;-79
2023/07/09 09:24:31;;;;;;;5.32;2.50;;;31.00;25.40;;;;;;6086852;23;114232;-79
2023/07/09 09:26:59;;;;;;;4.78;2.90;;;31.00;24.00;;;;;;6087449;23;114094;-79
2023/07/09 09:29:27;;;;;;;4.78;3.10;;;31.00;24.40;;;;;;6111797;23;115345;-79
2023/07/09 09:31:56;;;;;;;5.47;3.38;;;31.00;24.80;;;;;;6112306;23;114915;-78
2023/07/09 09:34:28;;;;;;;5.97;3.55;;;31.00;24.40;;;;;;6112931;23;114647;-78
2023/07/09 09:36:57;;;;;;;4.50;3.35;;;31.10;23.70;;;;;;6110607;23;114324;-79
2023/07/09 09:39:25;;;;;;;6.50;3.00;;;31.00;24.00;;;;;;6086189;23;115277;-79
2023/07/09 09:41:57;;;;;;;4.35;3.20;;;30.90;24.10;;;;;;6085111;23;115283;-79
2023/07/09 09:44:26;;;;;;;3.72;2.90;;;30.90;24.90;;;;;;6086983;23;114086;-79
2023/07/09 09:46:56;;;;;;;5.43;3.25;;;30.90;25.60;;;;;;6111545;23;114108;-79
2023/07/09 09:49:27;;;;;;;4.45;3.00;;;31.00;25.20;;;;;;6109864;23;115431;-79
2023/07/09 09:51:58;;;;;;;3.95;3.53;;;31.00;24.40;;;;;;6110624;23;114504;-78
2023/07/09 09:54:27;;;;;;;5.03;3.58;;;31.10;24.10;;;;;;6111957;23;114229;-78
2023/07/09 09:56:55;;;;;;;5.18;3.70;;;31.10;24.00;;;;;;6111497;23;114352;-78
2023/07/09 09:59:31;;;;;;;5.40;3.85;;;31.00;23.70;;;;;;6111925;22;114853;-78
2023/07/09 10:02:03;;;;;;;4.25;3.25;;;31.00;23.70;;;;;;6110498;23;114670;-77
2023/07/09 10:04:31;;;;;;;5.38;3.28;;;31.10;23.80;;;;;;6113004;22;114314;-78
2023/07/09 10:07:03;;;;;;;5.93;3.72;;;31.10;23.30;;;;;;6113375;23;114265;-77
2023/07/09 10:09:46;;;;;;;13.25;4.63;;;31.00;23.50;;;;;;6110309;23;114777;-78
2023/07/09 10:12:50;;;;;;;6.53;3.90;;;31.20;23.80;;;;;;6110017;23;118765;-77
2023/07/09 10:15:26;;;;;;;5.57;3.58;;;31.20;23.90;;;;;;6122098;22;114371;-77
2023/07/09 10:18:06;;;;;;;6.95;3.90;;;31.20;23.20;;;;;;6087440;23;114296;-77
2023/07/09 10:20:38;;;;;;;5.18;3.83;;;31.20;23.40;;;;;;6110915;23;116470;-80
2023/07/09 10:23:29;;;;;;;6.47;3.47;;;31.20;23.80;;;;;;6110814;23;115282;-79
2023/07/09 10:26:11;;;;;;;6.43;3.58;;;31.20;23.30;;;;;;6112657;23;114127;-79
2023/07/09 10:29:05;;;;;;;4.82;3.33;;;31.20;23.80;;;;;;6112204;23;114311;-78
2023/07/09 10:31:40;;;;;;;4.13;3.10;;;30.90;24.10;;;;;;6112210;23;114802;-78
2023/07/09 10:34:34;;;;;;;5.68;3.70;;;30.70;22.40;;;;;;6110160;23;115805;-79
2023/07/09 10:37:41;;;;;;;4.65;3.85;;;30.80;22.80;;;;;;6112869;23;114251;-78
2023/07/09 10:40:10;;;;;;;5.72;3.83;;;30.60;22.30;;;;;;6112730;23;114234;-77
2023/07/09 10:42:50;;;;;;;6.82;3.72;;;30.50;22.40;;;;;;6086693;23;116113;-78
2023/07/09 10:45:24;;;;;;;5.50;3.60;;;30.60;22.80;;;;;;6112452;23;114571;-78
2023/07/09 10:48:06;;;;;;;4.82;3.53;;;30.70;22.90;;;;;;6114381;23;114044;-78
2023/07/09 10:50:42;;;;;;;4.70;3.73;;;30.80;23.40;;;;;;6117091;22;114158;-79
2023/07/09 10:53:29;;;;;;;7.35;3.83;;;30.90;23.80;;;;;;6113975;22;115053;-78
2023/07/09 10:56:14;;;;;;;5.70;3.90;;;31.20;23.80;;;;;;6087770;23;116724;-79
2023/07/09 10:58:57;;;;;;;6.32;3.58;;;31.30;23.90;;;;;;6113577;23;114062;-78
2023/07/09 11:01:49;;;;;;;5.22;3.75;;;31.30;23.80;;;;;;6115560;23;114109;-79
2023/07/09 11:04:28;;;;;;;6.32;3.90;;;31.30;23.60;;;;;;6112664;23;116138;-78
2023/07/09 11:06:56;;;;;;;5.80;3.60;;;31.20;23.60;;;;;;6112148;23;115814;-78
2023/07/09 11:09:31;;;;;;;5.65;3.83;;;31.10;22.90;;;;;;6112536;23;114211;-78
2023/07/09 11:12:03;;;;;;;5.53;3.88;;;31.10;23.00;;;;;;6113573;23;114170;-77
2023/07/09 11:14:43;;;;;;;5.40;3.90;;;31.10;23.60;;;;;;6112217;23;116204;-78
2023/07/09 11:17:15;;;;;;;7.38;3.83;;;31.30;23.30;;;;;;6112259;23;114805;-79
2023/07/09 11:19:54;;;;;;;5.00;3.30;;;31.30;23.40;;;;;;6113575;23;114379;-79
2023/07/09 11:22:39;;;;;;;6.10;3.80;;;31.30;23.20;;;;;;6114701;23;114287;-78
2023/07/09 11:25:11;;;;;;;5.18;4.00;;;31.30;23.30;;;;;;6113580;22;115291;-77
2023/07/09 11:27:49;;;;;;;10.15;4.22;;;31.20;23.10;;;;;;6112161;23;114939;-78
2023/07/09 11:30:23;;;;;;;7.50;3.90;;;31.30;23.70;;;;;;6113214;23;114362;-79
2023/07/09 11:32:57;;;;;;;;;;;31.30;23.60;;;;;;6113845;23;114189;-79
2023/07/09 11:35:47;;;;;;;4.95;3.53;;;31.30;24.30;;;;;;6112110;23;115461;-79
2023/07/09 11:38:18;;;;;;;4.55;3.80;;;31.40;23.30;;;;;;6112146;23;117885;-79
2023/07/09 11:40:55;;;;;;;6.70;3.70;;;31.40;23.10;;;;;;6114582;23;114079;-78
2023/07/09 11:43:27;;;;;;;5.60;3.78;;;31.40;23.40;;;;;;6088378;23;114290;-81
2023/07/09 11:45:57;;;;;;;5.78;3.97;;;31.30;23.10;;;;;;6113962;23;114130;-79
2023/07/09 11:48:25;;;;;;;6.88;4.32;;;31.30;23.20;;;;;;6111715;23;114681;-78
2023/07/09 11:50:53;;;;;;;5.75;4.30;;;31.30;23.40;;;;;;6112252;23;113962;-79
2023/07/09 11:53:44;;;;;;;5.60;3.72;;;31.20;23.40;;;;;;6088977;23;114099;-78
2023/07/09 11:56:11;;;;;;;4.55;3.80;;;31.30;23.60;;;;;;6113131;22;116391;-79
2023/07/09 11:59:09;;;;;;;6.28;3.65;;;31.10;23.20;;;;;;6113390;23;114510;-77
2023/07/09 12:01:48;;;;;;;4.63;3.50;;;31.10;23.40;;;;;;6109603;23;114071;-79
2023/07/09 12:04:17;;;;;;;5.28;3.63;;;31.00;23.10;;;;;;6112539;23;114141;-78
2023/07/09 12:06:45;;;;;;;4.40;3.35;;;30.90;23.70;;;;;;6087216;23;118319;-78
2023/07/09 12:09:20;;;;;;;5.15;3.95;;;30.80;23.40;;;;;;6111684;23;114450;-79
2023/07/09 12:11:49;;;;;;;5.53;3.63;;;30.50;23.60;;;;;;6113274;23;114344;-77
2023/07/09 12:14:21;;;;;;;4.78;4.00;;;30.30;23.40;;;;;;6113068;22;114329;-80
2023/07/09 12:16:51;;;;;;;10.02;4.35;;;30.30;24.10;;;;;;6113665;23;114938;-78
2023/07/09 12:19:20;;;;;;;6.38;4.63;;;30.40;24.10;;;;;;6136736;22;114610;-79
2023/07/09 12:21:56;;;;;;;7.68;4.18;;;30.50;23.80;;;;;;6113832;23;114257;-79
2023/07/09 12:24:28;;;;;;;6.85;3.88;;;30.60;23.80;;;;;;6113659;23;114343;-80
2023/07/09 12:27:00;;;;;;;6.05;4.00;;;30.60;24.30;;;;;;6110598;23;115121;-79
2023/07/09 12:29:29;;;;;;;5.35;3.63;;;30.60;24.40;;;;;;6112592;22;115479;-79
2023/07/09 12:31:58;;;;;;;7.20;3.60;;;30.80;24.10;;;;;;6113711;23;113983;-79
2023/07/09 12:34:26;;;;;;;6.30;4.00;;;30.80;24.20;;;;;;6113230;23;114163;-79
2023/07/09 12:36:55;;;;;;;5.38;4.00;;;30.70;23.90;;;;;;6110848;23;115353;-79
2023/07/09 12:39:31;;;;;;;7.85;4.10;;;30.60;23.80;;;;;;6112615;22;114354;-78
2023/07/09 12:42:00;;;;;;;5.28;3.88;;;30.60;23.70;;;;;;6112590;23;114184;-79
2023/07/09 12:44:31;;;;;;;8.20;4.00;;;30.50;23.80;;;;;;6112748;23;114198;-79
2023/07/09 12:46:58;;;;;;;6.45;4.20;;;30.40;23.90;;;;;;6111157;23;116624;-79
2023/07/09 12:49:27;;;;;;;5.93;3.88;;;30.40;24.10;;;;;;6112637;23;114754;-77
2023/07/09 12:51:58;;;;;;;4.40;3.35;;;30.40;24.50;;;;;;6087305;23;114297;-78
2023/07/09 12:54:27;;;;;;;4.85;3.92;;;30.30;24.10;;;;;;6114268;23;114118;-78
2023/07/09 12:56:55;;;;;;;4.85;3.78;;;30.30;24.60;;;;;;6111089;23;115645;-78